HKKI

Kisumu Airport

Kisumu, Kenya
METAR HKKI 250400Z 05003KT 9999 FEW018CB SCT019 18/17 Q1017
Observed Flight Rules
May-25 @ 04:00 UTC (an hour ago) Visual Flight Rules
Wind Visibility Clouds
50° at 3 knots 10,000+ meters
  • Few at 1,800' AGL
  • Scattered at 1,900' AGL
Temperatures Readings
Current 18°C / 64°F
Dewpoint 17°C / 63°F
Humidity 94%
Altimeter 30.03" Hg
Pressure 1017 hPa
Elevation 1146
METAR HKKI 250400Z 05003KT 9999 FEW018CB SCT019 18/17 Q1017
Observed Flight Rules
May-25 @ 04:00 UTC
(an hour ago)
VFR
Wind Visibility
50° at 3 knots 10,000+ meters
Clouds
  • Few at 1,800' AGL
  • Scattered at 1,900' AGL
Temperature Dewpoint
18°C / 64°F 17°C / 63°F
Humidity Altimeter Pressure
94% 30.03" Hg 1017 hPa